sensor_id;sensor_type;location;lat;lon;timestamp;P1;durP1;ratioP1;P2;durP2;ratioP2
48849;SDS011;63210;53.370;6.770;2022-12-24T00:00:27;28.30;;;11.30;;
48849;SDS011;63210;53.370;6.770;2022-12-24T00:03:05;34.67;;;13.20;;
48849;SDS011;63210;53.370;6.770;2022-12-24T00:05:30;24.63;;;11.15;;
48849;SDS011;63210;53.370;6.770;2022-12-24T00:07:56;28.33;;;11.90;;
48849;SDS011;63210;53.370;6.770;2022-12-24T00:10:25;27.65;;;11.63;;
48849;SDS011;63210;53.370;6.770;2022-12-24T00:12:57;28.33;;;11.80;;
48849;SDS011;63210;53.370;6.770;2022-12-24T00:15:23;28.67;;;11.80;;
48849;SDS011;63210;53.370;6.770;2022-12-24T00:17:58;28.88;;;12.15;;
48849;SDS011;63210;53.370;6.770;2022-12-24T00:20:29;29.88;;;12.10;;
48849;SDS011;63210;53.370;6.770;2022-12-24T00:23:08;27.95;;;12.05;;
48849;SDS011;63210;53.370;6.770;2022-12-24T00:25:43;29.33;;;12.32;;
48849;SDS011;63210;53.370;6.770;2022-12-24T00:28:12;35.10;;;12.55;;
48849;SDS011;63210;53.370;6.770;2022-12-24T00:30:46;30.35;;;12.18;;
48849;SDS011;63210;53.370;6.770;2022-12-24T00:33:13;26.83;;;11.18;;
48849;SDS011;63210;53.370;6.770;2022-12-24T00:35:48;25.02;;;11.15;;
48849;SDS011;63210;53.370;6.770;2022-12-24T00:38:16;29.63;;;11.65;;
48849;SDS011;63210;53.370;6.770;2022-12-24T00:40:42;27.38;;;12.07;;
48849;SDS011;63210;53.370;6.770;2022-12-24T00:43:17;23.30;;;11.77;;
48849;SDS011;63210;53.370;6.770;2022-12-24T00:45:44;28.27;;;12.38;;
48849;SDS011;63210;53.370;6.770;2022-12-24T00:48:13;35.42;;;12.60;;
48849;SDS011;63210;53.370;6.770;2022-12-24T00:50:39;27.77;;;12.48;;
48849;SDS011;63210;53.370;6.770;2022-12-24T00:53:04;32.25;;;13.13;;
48849;SDS011;63210;53.370;6.770;2022-12-24T00:55:31;27.17;;;12.40;;
48849;SDS011;63210;53.370;6.770;2022-12-24T00:58:00;39.85;;;13.88;;
48849;SDS011;63210;53.370;6.770;2022-12-24T01:00:27;26.55;;;12.38;;
48849;SDS011;63210;53.370;6.770;2022-12-24T01:02:56;28.58;;;12.98;;
48849;SDS011;63210;53.370;6.770;2022-12-24T01:05:24;30.60;;;12.73;;
48849;SDS011;63210;53.370;6.770;2022-12-24T01:07:52;30.90;;;12.48;;
48849;SDS011;63210;53.370;6.770;2022-12-24T01:10:23;30.45;;;12.75;;
48849;SDS011;63210;53.370;6.770;2022-12-24T01:12:54;26.48;;;11.68;;
48849;SDS011;63210;53.370;6.770;2022-12-24T01:15:19;40.63;;;13.77;;
48849;SDS011;63210;53.370;6.770;2022-12-24T01:17:48;33.40;;;12.63;;
48849;SDS011;63210;53.370;6.770;2022-12-24T01:20:28;36.00;;;13.40;;
48849;SDS011;63210;53.370;6.770;2022-12-24T01:23:32;36.17;;;12.82;;
48849;SDS011;63210;53.370;6.770;2022-12-24T01:26:06;37.45;;;13.38;;
48849;SDS011;63210;53.370;6.770;2022-12-24T01:28:31;28.85;;;12.45;;
48849;SDS011;63210;53.370;6.770;2022-12-24T01:30:57;45.80;;;14.20;;
48849;SDS011;63210;53.370;6.770;2022-12-24T01:33:23;37.15;;;12.20;;
48849;SDS011;63210;53.370;6.770;2022-12-24T01:36:01;31.73;;;12.50;;
48849;SDS011;63210;53.370;6.770;2022-12-24T01:38:30;30.85;;;12.57;;
48849;SDS011;63210;53.370;6.770;2022-12-24T01:41:01;27.15;;;12.07;;
48849;SDS011;63210;53.370;6.770;2022-12-24T01:43:51;30.30;;;12.88;;
48849;SDS011;63210;53.370;6.770;2022-12-24T01:46:26;32.88;;;12.70;;
48849;SDS011;63210;53.370;6.770;2022-12-24T01:49:00;37.25;;;13.10;;
48849;SDS011;63210;53.370;6.770;2022-12-24T01:51:37;34.15;;;12.32;;
48849;SDS011;63210;53.370;6.770;2022-12-24T01:55:12;28.67;;;12.13;;
48849;SDS011;63210;53.370;6.770;2022-12-24T01:57:32;33.88;;;13.40;;
48849;SDS011;63210;53.370;6.770;2022-12-24T02:00:12;36.88;;;12.80;;
48849;SDS011;63210;53.370;6.770;2022-12-24T02:02:43;36.10;;;12.82;;
48849;SDS011;63210;53.370;6.770;2022-12-24T02:07:45;34.15;;;12.38;;
48849;SDS011;63210;53.370;6.770;2022-12-24T02:10:22;34.28;;;13.18;;
48849;SDS011;63210;53.370;6.770;2022-12-24T02:12:48;29.10;;;12.38;;
48849;SDS011;63210;53.370;6.770;2022-12-24T02:15:14;25.20;;;11.63;;
48849;SDS011;63210;53.370;6.770;2022-12-24T02:17:58;33.38;;;12.15;;
48849;SDS011;63210;53.370;6.770;2022-12-24T02:31:40;23.13;;;11.23;;
48849;SDS011;63210;53.370;6.770;2022-12-24T02:37:07;33.63;;;11.57;;
48849;SDS011;63210;53.370;6.770;2022-12-24T02:39:37;25.55;;;11.38;;
48849;SDS011;63210;53.370;6.770;2022-12-24T02:42:03;22.67;;;10.68;;
48849;SDS011;63210;53.370;6.770;2022-12-24T02:47:02;25.50;;;11.38;;
48849;SDS011;63210;53.370;6.770;2022-12-24T02:49:43;34.65;;;12.20;;
48849;SDS011;63210;53.370;6.770;2022-12-24T02:52:34;25.92;;;12.05;;
48849;SDS011;63210;53.370;6.770;2022-12-24T02:55:01;25.83;;;11.82;;
48849;SDS011;63210;53.370;6.770;2022-12-24T02:57:29;29.10;;;13.23;;
48849;SDS011;63210;53.370;6.770;2022-12-24T03:00:12;29.58;;;12.00;;
48849;SDS011;63210;53.370;6.770;2022-12-24T03:08:01;33.42;;;12.25;;
48849;SDS011;63210;53.370;6.770;2022-12-24T03:13:02;30.13;;;12.30;;
48849;SDS011;63210;53.370;6.770;2022-12-24T03:15:30;33.78;;;12.27;;
48849;SDS011;63210;53.370;6.770;2022-12-24T03:17:57;37.85;;;13.07;;
48849;SDS011;63210;53.370;6.770;2022-12-24T03:20:32;31.85;;;11.70;;
48849;SDS011;63210;53.370;6.770;2022-12-24T03:23:02;29.63;;;12.23;;
48849;SDS011;63210;53.370;6.770;2022-12-24T03:25:28;28.58;;;12.00;;
48849;SDS011;63210;53.370;6.770;2022-12-24T03:28:02;57.72;;;13.73;;
48849;SDS011;63210;53.370;6.770;2022-12-24T03:30:30;27.30;;;12.68;;
48849;SDS011;63210;53.370;6.770;2022-12-24T03:32:58;72.90;;;13.25;;
48849;SDS011;63210;53.370;6.770;2022-12-24T03:35:26;85.22;;;14.85;;
48849;SDS011;63210;53.370;6.770;2022-12-24T03:38:00;43.22;;;13.07;;
48849;SDS011;63210;53.370;6.770;2022-12-24T03:40:32;26.30;;;12.20;;
48849;SDS011;63210;53.370;6.770;2022-12-24T03:43:00;33.95;;;12.80;;
48849;SDS011;63210;53.370;6.770;2022-12-24T03:45:27;51.35;;;13.85;;
48849;SDS011;63210;53.370;6.770;2022-12-24T03:47:53;30.60;;;12.50;;
48849;SDS011;63210;53.370;6.770;2022-12-24T03:50:26;28.55;;;12.70;;
48849;SDS011;63210;53.370;6.770;2022-12-24T03:55:46;40.85;;;14.20;;
48849;SDS011;63210;53.370;6.770;2022-12-24T03:58:16;44.72;;;14.32;;
48849;SDS011;63210;53.370;6.770;2022-12-24T04:00:44;24.77;;;12.95;;
48849;SDS011;63210;53.370;6.770;2022-12-24T04:03:19;25.92;;;12.20;;
48849;SDS011;63210;53.370;6.770;2022-12-24T04:06:06;46.42;;;14.80;;
48849;SDS011;63210;53.370;6.770;2022-12-24T04:08:35;56.47;;;15.45;;
48849;SDS011;63210;53.370;6.770;2022-12-24T04:11:05;29.38;;;13.68;;
48849;SDS011;63210;53.370;6.770;2022-12-24T04:13:31;45.60;;;14.10;;
48849;SDS011;63210;53.370;6.770;2022-12-24T04:16:06;33.13;;;13.63;;
48849;SDS011;63210;53.370;6.770;2022-12-24T04:18:38;35.40;;;13.73;;
48849;SDS011;63210;53.370;6.770;2022-12-24T04:21:04;56.30;;;15.70;;
48849;SDS011;63210;53.370;6.770;2022-12-24T04:26:33;57.55;;;17.55;;
48849;SDS011;63210;53.370;6.770;2022-12-24T04:29:01;54.38;;;17.17;;
48849;SDS011;63210;53.370;6.770;2022-12-24T04:31:29;62.97;;;16.85;;
48849;SDS011;63210;53.370;6.770;2022-12-24T04:33:54;58.83;;;17.58;;
48849;SDS011;63210;53.370;6.770;2022-12-24T04:36:26;54.22;;;18.17;;
48849;SDS011;63210;53.370;6.770;2022-12-24T04:41:22;55.17;;;18.15;;
48849;SDS011;63210;53.370;6.770;2022-12-24T04:43:51;55.83;;;18.80;;
48849;SDS011;63210;53.370;6.770;2022-12-24T04:46:23;62.42;;;19.98;;
48849;SDS011;63210;53.370;6.770;2022-12-24T04:48:52;46.97;;;17.58;;
48849;SDS011;63210;53.370;6.770;2022-12-24T04:51:19;62.22;;;21.25;;
48849;SDS011;63210;53.370;6.770;2022-12-24T04:54:05;58.92;;;19.67;;
48849;SDS011;63210;53.370;6.770;2022-12-24T04:56:32;47.78;;;19.23;;
48849;SDS011;63210;53.370;6.770;2022-12-24T04:58:58;47.35;;;19.10;;
48849;SDS011;63210;53.370;6.770;2022-12-24T05:01:47;54.30;;;19.30;;
48849;SDS011;63210;53.370;6.770;2022-12-24T05:04:12;53.60;;;19.10;;
48849;SDS011;63210;53.370;6.770;2022-12-24T05:06:48;47.75;;;17.95;;
48849;SDS011;63210;53.370;6.770;2022-12-24T05:09:13;44.10;;;18.27;;
48849;SDS011;63210;53.370;6.770;2022-12-24T05:11:39;34.75;;;15.23;;
48849;SDS011;63210;53.370;6.770;2022-12-24T05:14:10;49.25;;;16.95;;
48849;SDS011;63210;53.370;6.770;2022-12-24T05:19:31;39.00;;;16.05;;
48849;SDS011;63210;53.370;6.770;2022-12-24T05:21:59;42.17;;;15.52;;
48849;SDS011;63210;53.370;6.770;2022-12-24T05:24:52;35.90;;;14.80;;
48849;SDS011;63210;53.370;6.770;2022-12-24T05:27:50;53.22;;;17.48;;
48849;SDS011;63210;53.370;6.770;2022-12-24T05:30:21;42.35;;;16.20;;
48849;SDS011;63210;53.370;6.770;2022-12-24T05:32:47;45.92;;;14.20;;
48849;SDS011;63210;53.370;6.770;2022-12-24T05:35:16;37.60;;;12.57;;
48849;SDS011;63210;53.370;6.770;2022-12-24T05:40:51;30.98;;;10.38;;
48849;SDS011;63210;53.370;6.770;2022-12-24T05:43:32;28.77;;;9.00;;
48849;SDS011;63210;53.370;6.770;2022-12-24T05:46:07;38.97;;;10.13;;
48849;SDS011;63210;53.370;6.770;2022-12-24T05:48:33;28.63;;;8.80;;
48849;SDS011;63210;53.370;6.770;2022-12-24T05:51:15;32.15;;;7.88;;
48849;SDS011;63210;53.370;6.770;2022-12-24T05:54:13;26.50;;;7.78;;
48849;SDS011;63210;53.370;6.770;2022-12-24T05:56:58;29.23;;;6.45;;
48849;SDS011;63210;53.370;6.770;2022-12-24T05:59:41;32.97;;;7.25;;
48849;SDS011;63210;53.370;6.770;2022-12-24T06:02:18;37.75;;;6.55;;
48849;SDS011;63210;53.370;6.770;2022-12-24T06:04:51;35.63;;;6.88;;
48849;SDS011;63210;53.370;6.770;2022-12-24T06:07:41;28.25;;;5.07;;
48849;SDS011;63210;53.370;6.770;2022-12-24T06:10:08;26.55;;;4.85;;
48849;SDS011;63210;53.370;6.770;2022-12-24T06:12:47;31.00;;;5.75;;
48849;SDS011;63210;53.370;6.770;2022-12-24T06:15:29;27.67;;;4.68;;
